createdAt,value
2023-05-08T00:03:24.121Z,6.16
2023-05-08T00:08:29.472Z,6.22
2023-05-08T00:13:33.599Z,5.61
2023-05-08T00:18:38.718Z,5.67
2023-05-08T00:23:44.010Z,5.41
2023-05-08T00:28:47.929Z,5.34
2023-05-08T00:33:51.975Z,5.64
2023-05-08T00:38:57.381Z,5.93
2023-05-08T00:44:01.318Z,6.21
2023-05-08T00:49:06.959Z,6.03
2023-05-08T00:54:12.841Z,4.81
2023-05-08T00:59:19.129Z,5.00
2023-05-08T01:04:26.683Z,5.36
2023-05-08T01:09:32.169Z,5.80
2023-05-08T01:14:49.472Z,5.66
2023-05-08T01:20:05.152Z,6.42
2023-05-08T01:25:49.503Z,5.73
2023-05-08T01:31:11.733Z,5.96
2023-05-08T01:36:25.152Z,5.51
2023-05-08T01:41:32.198Z,5.92
2023-05-08T01:46:36.380Z,5.21
2023-05-08T01:51:47.221Z,5.23
2023-05-08T01:56:55.464Z,5.39
2023-05-08T02:02:02.040Z,5.39
2023-05-08T02:07:08.617Z,5.11
2023-05-08T02:12:14.439Z,5.58
2023-05-08T02:17:19.184Z,5.30
2023-05-08T02:22:25.508Z,5.13
2023-05-08T02:27:31.555Z,5.32
2023-05-08T02:32:36.287Z,5.06
2023-05-08T02:37:43.800Z,5.25
2023-05-08T02:42:49.176Z,4.88
2023-05-08T02:48:05.516Z,4.81
2023-05-08T02:53:17.317Z,4.67
2023-05-08T02:58:26.376Z,4.41
2023-05-08T03:03:40.403Z,4.34
2023-05-08T03:08:49.634Z,5.17
2023-05-08T03:13:58.407Z,4.75
2023-05-08T03:19:06.807Z,4.73
2023-05-08T03:24:13.447Z,4.60
2023-05-08T03:29:19.788Z,5.30
2023-05-08T03:34:25.755Z,5.35
2023-05-08T03:39:31.448Z,4.75
2023-05-08T03:44:35.972Z,5.40
2023-05-08T03:49:40.551Z,5.47
2023-05-08T03:54:46.270Z,5.32
2023-05-08T03:59:58.360Z,5.54
2023-05-08T04:05:11.694Z,4.83
2023-05-08T04:10:25.744Z,5.41
2023-05-08T04:15:32.645Z,4.66
2023-05-08T04:20:41.684Z,4.98
2023-05-08T04:25:50.109Z,5.08
2023-05-08T04:30:55.161Z,4.58
2023-05-08T04:36:05.185Z,5.09
2023-05-08T04:41:15.065Z,4.68
2023-05-08T04:46:20.167Z,4.93
2023-05-08T04:51:24.306Z,4.55
2023-05-08T04:56:30.038Z,4.69
2023-05-08T05:01:34.381Z,4.61
2023-05-08T05:06:38.970Z,4.78
2023-05-08T05:11:44.767Z,4.75
2023-05-08T05:16:48.957Z,5.09
2023-05-08T05:21:53.051Z,5.33
2023-05-08T05:26:58.677Z,4.67
2023-05-08T05:32:03.307Z,5.37
2023-05-08T05:37:08.017Z,5.24
2023-05-08T05:42:14.091Z,4.81
2023-05-08T05:47:18.576Z,4.89
2023-05-08T05:52:23.183Z,5.06
2023-05-08T05:57:28.838Z,6.09
2023-05-08T06:02:34.019Z,5.89
2023-05-08T06:07:38.418Z,6.32
2023-05-08T06:12:44.095Z,6.06
2023-05-08T06:17:48.473Z,5.88
2023-05-08T06:22:52.465Z,5.98
2023-05-08T06:27:57.928Z,6.26
2023-05-08T06:33:02.035Z,5.99
2023-05-08T06:38:06.375Z,5.83
2023-05-08T06:43:12.504Z,5.83
2023-05-08T06:48:16.624Z,6.61
2023-05-08T06:53:20.498Z,6.82
2023-05-08T06:58:26.169Z,7.20
2023-05-08T07:03:30.184Z,7.24
2023-05-08T07:08:34.077Z,6.99
2023-05-08T07:13:39.645Z,6.83
2023-05-08T07:18:43.661Z,7.10
2023-05-08T07:23:47.980Z,7.68
2023-05-08T07:28:54.322Z,7.74
2023-05-08T07:33:58.255Z,7.60
2023-05-08T07:39:02.100Z,7.79
2023-05-08T07:44:07.399Z,8.51
2023-05-08T07:49:11.298Z,8.04
2023-05-08T07:54:15.304Z,8.15
2023-05-08T07:59:20.638Z,7.68
2023-05-08T08:04:24.838Z,8.04
2023-05-08T08:09:29.005Z,9.12
2023-05-08T08:14:34.466Z,8.84
2023-05-08T08:19:38.453Z,9.33
2023-05-08T08:24:42.389Z,10.13
2023-05-08T08:29:47.999Z,9.48
2023-05-08T08:34:52.077Z,8.83
2023-05-08T08:39:56.167Z,8.80
2023-05-08T08:45:01.955Z,9.56
2023-05-08T08:50:07.865Z,9.96
2023-05-08T08:55:16.679Z,10.95
2023-05-08T09:00:23.880Z,10.05
2023-05-08T09:05:28.035Z,9.26
2023-05-08T09:10:32.431Z,9.46
2023-05-08T09:15:38.123Z,9.67
2023-05-08T09:20:42.616Z,10.19
2023-05-08T09:25:47.632Z,10.01
2023-05-08T09:30:56.993Z,10.25
2023-05-08T09:36:01.146Z,10.60
2023-05-08T09:41:12.313Z,10.19
2023-05-08T09:46:25.859Z,10.22
2023-05-08T09:51:31.332Z,11.05
2023-05-08T09:56:36.672Z,10.70
2023-05-08T10:01:42.548Z,9.79
2023-05-08T10:06:56.689Z,9.44
2023-05-08T10:12:00.999Z,9.26
2023-05-08T10:17:11.172Z,9.89
2023-05-08T10:22:20.206Z,10.60
2023-05-08T10:27:36.016Z,9.26
2023-05-08T10:32:45.607Z,8.88
2023-05-08T10:37:50.836Z,9.17
2023-05-08T10:42:55.498Z,10.43
2023-05-08T10:48:06.469Z,10.55
2023-05-08T10:53:17.776Z,11.54
2023-05-08T10:58:32.813Z,10.63
2023-05-08T11:03:42.771Z,11.51
2023-05-08T11:08:49.809Z,11.48
2023-05-08T11:13:57.320Z,10.32
2023-05-08T11:19:22.203Z,10.18
2023-05-08T11:24:36.015Z,10.48
2023-05-08T11:29:40.235Z,10.52
2023-05-08T11:34:50.041Z,10.77
2023-05-08T11:39:54.335Z,11.91
2023-05-08T11:45:05.515Z,13.61
2023-05-08T11:50:12.906Z,12.92
2023-05-08T11:55:19.651Z,12.04
2023-05-08T12:00:24.100Z,12.53
2023-05-08T12:05:29.880Z,12.27
2023-05-08T12:10:34.039Z,12.10
2023-05-08T12:15:39.998Z,12.33
2023-05-08T12:20:45.919Z,12.85
2023-05-08T12:25:55.418Z,12.33
2023-05-08T12:31:00.001Z,12.53
2023-05-08T12:36:06.920Z,11.77
2023-05-08T12:41:11.309Z,11.99
2023-05-08T12:46:17.849Z,12.56
2023-05-08T12:51:31.164Z,12.05
2023-05-08T12:56:35.216Z,12.78
2023-05-08T13:01:39.397Z,13.60
2023-05-08T13:06:56.088Z,13.07
2023-05-08T13:12:00.883Z,12.89
2023-05-08T13:17:04.966Z,12.32
2023-05-08T13:22:10.521Z,14.50
2023-05-08T13:27:14.821Z,14.44
2023-05-08T13:32:19.080Z,11.93
2023-05-08T13:37:24.671Z,10.63
2023-05-08T13:42:28.784Z,10.28
2023-05-08T13:47:33.451Z,10.94
2023-05-08T13:52:39.239Z,11.55
2023-05-08T13:57:43.168Z,11.58
2023-05-08T14:02:48.828Z,12.00
2023-05-08T14:07:55.729Z,12.09
2023-05-08T14:12:59.843Z,12.34
2023-05-08T14:18:03.953Z,11.73
2023-05-08T14:23:09.507Z,12.44
2023-05-08T14:28:13.625Z,12.28
2023-05-08T14:33:19.324Z,12.57
2023-05-08T14:38:25.113Z,13.29
2023-05-08T14:43:29.312Z,13.34
2023-05-08T14:48:33.359Z,12.39
2023-05-08T14:53:39.050Z,11.49
2023-05-08T14:58:43.034Z,10.64
2023-05-08T15:03:53.243Z,10.39
2023-05-08T15:08:59.273Z,10.70
2023-05-08T15:14:03.741Z,11.32
2023-05-08T15:19:09.641Z,11.47
2023-05-08T15:24:15.685Z,11.34
2023-05-08T15:29:23.822Z,11.58
2023-05-08T15:34:32.469Z,10.85
2023-05-08T15:39:39.409Z,11.06
2023-05-08T15:44:54.675Z,12.22
2023-05-08T15:49:59.409Z,12.84
2023-05-08T15:55:05.231Z,12.03
2023-05-08T16:00:09.732Z,11.19
2023-05-08T16:05:14.145Z,10.96
2023-05-08T16:10:20.154Z,10.27
2023-05-08T16:15:24.343Z,10.42
2023-05-08T16:20:33.558Z,10.54
2023-05-08T16:25:41.229Z,10.23
2023-05-08T16:30:45.482Z,10.53
2023-05-08T16:35:50.686Z,9.98
2023-05-08T16:41:02.180Z,9.52
2023-05-08T16:46:07.517Z,9.45
2023-05-08T16:51:11.765Z,9.48
2023-05-08T16:56:17.131Z,10.19
2023-05-08T17:01:21.080Z,9.63
2023-05-08T17:06:27.816Z,10.11
2023-05-08T17:11:33.120Z,10.15
2023-05-08T17:16:38.848Z,10.01
2023-05-08T17:21:43.331Z,9.81
2023-05-08T17:26:50.532Z,10.60
2023-05-08T17:32:04.867Z,10.50
2023-05-08T17:37:09.006Z,9.82
2023-05-08T17:42:14.361Z,10.12
2023-05-08T17:47:18.289Z,9.87
2023-05-08T17:52:22.839Z,9.67
2023-05-08T17:57:28.314Z,9.68
2023-05-08T18:02:32.542Z,9.24
2023-05-08T18:07:36.983Z,9.19
2023-05-08T18:12:46.505Z,8.91
2023-05-08T18:17:54.759Z,8.99
2023-05-08T18:22:58.901Z,8.73
2023-05-08T18:28:04.170Z,8.80
2023-05-08T18:33:08.230Z,8.78
2023-05-08T18:38:12.314Z,9.17
2023-05-08T18:43:17.677Z,8.93
2023-05-08T18:48:21.856Z,9.27
2023-05-08T18:53:25.865Z,9.27
2023-05-08T18:58:31.315Z,9.49
2023-05-08T19:03:35.251Z,9.51
2023-05-08T19:08:39.147Z,8.87
2023-05-08T19:13:44.498Z,8.86
2023-05-08T19:18:48.389Z,8.58
2023-05-08T19:23:52.351Z,8.72
2023-05-08T19:28:57.612Z,8.93
2023-05-08T19:34:01.554Z,8.78
2023-05-08T19:39:05.573Z,8.75
2023-05-08T19:44:10.871Z,8.49
2023-05-08T19:49:17.354Z,8.46
2023-05-08T19:54:21.347Z,8.22
2023-05-08T19:59:26.797Z,8.14
2023-05-08T20:09:35.254Z,8.28
2023-05-08T20:14:40.753Z,8.71
2023-05-08T20:19:44.866Z,8.44
2023-05-08T20:24:48.754Z,8.21
2023-05-08T20:29:54.760Z,8.18
2023-05-08T20:34:58.851Z,7.65
2023-05-08T20:40:04.811Z,7.72
2023-05-08T20:45:10.426Z,7.46
2023-05-08T20:50:16.473Z,7.53
2023-05-08T20:55:21.270Z,7.70
2023-05-08T21:00:26.982Z,8.05
2023-05-08T21:05:31.118Z,8.10
2023-05-08T21:10:35.027Z,7.99
2023-05-08T21:15:40.293Z,8.01
2023-05-08T21:20:49.650Z,8.08
2023-05-08T21:25:53.603Z,7.70
2023-05-08T21:30:58.878Z,7.70
2023-05-08T21:36:02.789Z,7.75
2023-05-08T21:41:07.884Z,7.61
2023-05-08T21:46:13.214Z,7.66
2023-05-08T21:51:17.609Z,7.58
2023-05-08T21:56:22.834Z,7.80
2023-05-08T22:01:28.211Z,7.82
2023-05-08T22:06:33.071Z,7.55
2023-05-08T22:11:37.051Z,7.67
2023-05-08T22:16:42.739Z,7.74
2023-05-08T22:21:46.944Z,7.75
2023-05-08T22:26:51.210Z,7.62
2023-05-08T22:31:56.977Z,7.41
2023-05-08T22:37:01.065Z,7.41
2023-05-08T22:42:05.511Z,7.49
2023-05-08T22:47:11.757Z,7.33
2023-05-08T22:52:17.114Z,6.88
2023-05-08T22:57:21.358Z,6.43
2023-05-08T23:02:32.101Z,5.57
2023-05-08T23:07:36.453Z,5.87
2023-05-08T23:12:40.542Z,5.63
2023-05-08T23:17:46.218Z,5.28
2023-05-08T23:22:50.228Z,5.15
2023-05-08T23:27:54.119Z,5.22
2023-05-08T23:32:59.398Z,4.65
2023-05-08T23:38:03.435Z,4.46
2023-05-08T23:43:07.418Z,4.35
2023-05-08T23:48:12.861Z,4.28
2023-05-08T23:53:16.696Z,4.07
2023-05-08T23:58:20.961Z,4.32
